Climatologie pour Saint-Brevin les Pins
Jour • Résumé pour décembre 1, 2017 Système :  Métrique    Anglais   Mixte
« - 1 jour
+ 1 jour »
Jour Semaine Mois Année Personnalisé
  Maximum : Minimum : Moyenne :
Température sous abri : -17.8 °C -17.7 °C -15.9 °C
Point de rosée : -17.8 °C -18.1 °C -16.7 °C
Humidité : Humidity % 70 % 89 %
Vitesse du vent : 0 km/h 0 km/h 10 km/h
Rafale : 0 km/h - -
Direction :- - WSW
Pression : 0 hPa 34361.1 hPa -
Précipitations : 7.62 mm    
Historical Graphs
 
 
Tableau de données pour décembre 1, 2017
Heure Tempé Pt rosée Pression Vent Vitesse Rafale Humidité Taux pluie (/hr) Soleil
-17.8 °C -17.8 °C 0 hPa Calm     Humidity % 0 mm SolarRadiationWatts/m^2 W/m2 Conditions
00:00 -17.4 °C -17.9 °C 34361.1 hPa Calm   5.1 km/h 94 % 0 mm 0 W/m2
00:10 -17.6 °C -18 °C 34361.1 hPa Calm   5.1 km/h 94 % 0 mm 0 W/m2
00:15 -17.6 °C -18 °C 34371.3 hPa Calm   5.1 km/h 95 % 0 mm 0 W/m2
00:20 -17.6 °C -17.9 °C 34371.3 hPa Calm   5.1 km/h 95 % 0 mm 0 W/m2
00:25 -17.6 °C -17.9 °C 34371.3 hPa Calm   5.1 km/h 95 % 0 mm 0 W/m2
00:30 -17.6 °C -18 °C 34371.3 hPa North 5.1 km/h 7.7 km/h 95 % 0 mm 0 W/m2
00:40 -17.6 °C -18 °C 34371.3 hPa Calm   7.7 km/h 95 % 0 mm 0 W/m2
00:45 -17.7 °C -18.1 °C 34371.3 hPa Calm   5.1 km/h 95 % 0 mm 0 W/m2
00:50 -17.7 °C -18.1 °C 34371.3 hPa Calm   12.9 km/h 95 % 0 mm 0 W/m2
00:55 -17.7 °C -18.1 °C 34371.3 hPa NNW 5.1 km/h 12.9 km/h 95 % 0 mm 0 W/m2
01:00 -17.6 °C -17.9 °C 34384.8 hPa NNW 10.3 km/h 15.6 km/h 96 % 0 mm 0 W/m2
01:05 -17.4 °C -17.8 °C 34371.3 hPa NNW 2.6 km/h 15.6 km/h 96 % 0 mm 0 W/m2
01:15 -17.4 °C -17.8 °C 34371.3 hPa NNW 7.7 km/h 20.8 km/h 96 % 0 mm 0 W/m2
01:30 -17.3 °C -17.6 °C 34371.3 hPa Calm   23.3 km/h 96 % 0 mm 0 W/m2
01:35 -17.3 °C -17.6 °C 34371.3 hPa Calm   23.3 km/h 96 % 0 mm 0 W/m2
01:45 -17.3 °C -17.7 °C 34371.3 hPa NW 12.9 km/h 18.2 km/h 95 % 0 mm 0 W/m2
01:50 -17.3 °C -17.7 °C 34371.3 hPa NNW 7.7 km/h 20.8 km/h 95 % 0 mm 0 W/m2
01:55 -17.2 °C -17.6 °C 34371.3 hPa NW 5.1 km/h 20.8 km/h 95 % 0 mm 0 W/m2
02:00 -17.2 °C -17.6 °C 34371.3 hPa North 7.7 km/h 20.8 km/h 95 % 0 mm 0 W/m2
02:10 -17.2 °C -17.6 °C 34371.3 hPa NW 2.6 km/h 20.8 km/h 95 % 0 mm 0 W/m2
02:15 -17.3 °C -17.7 °C 34371.3 hPa NW 7.7 km/h 18.2 km/h 94 % 0 mm 0 W/m2
02:20 -17.3 °C -17.7 °C 34371.3 hPa North 12.9 km/h 18.2 km/h 94 % 0 mm 0 W/m2
02:30 -17.2 °C -17.7 °C 34371.3 hPa NNW 2.6 km/h 20.8 km/h 94 % 0 mm 0 W/m2
02:35 -17.1 °C -17.6 °C 34371.3 hPa Calm   20.8 km/h 94 % 0 mm 0 W/m2
02:45 -17.1 °C -17.7 °C 34371.3 hPa North 2.6 km/h 23.3 km/h 93 % 0 mm 0 W/m2
03:00 -17.1 °C -17.7 °C 34384.8 hPa Calm   23.3 km/h 93 % 0 mm 0 W/m2
03:15 -17.3 °C -17.9 °C 34395 hPa Calm   20.8 km/h 93 % 0 mm 0 W/m2
03:20 -17.3 °C -17.8 °C 34395 hPa North 10.3 km/h 20.8 km/h 93 % 0 mm 0 W/m2
03:30 -17.2 °C -17.7 °C 34395 hPa NW 12.9 km/h 25.9 km/h 94 % 0 mm 0 W/m2
03:40 -17.1 °C -17.7 °C 34395 hPa NNW 5.1 km/h 28.5 km/h 93 % 0 mm 0 W/m2
03:45 -17.1 °C -17.7 °C 34395 hPa NNE 10.3 km/h 18.2 km/h 93 % 0 mm 0 W/m2
03:55 -17.2 °C -17.7 °C 34395 hPa NW 20.8 km/h 23.3 km/h 93 % 0 mm 0 W/m2
04:00 -17.2 °C -17.7 °C 34395 hPa NW 5.1 km/h 25.9 km/h 93 % 0 mm 0 W/m2
04:05 -17.2 °C -17.7 °C 34395 hPa NNW 5.1 km/h 25.9 km/h 93 % 0 mm 0 W/m2
04:10 -17.2 °C -17.8 °C 34395 hPa NW 18.2 km/h 25.9 km/h 92 % 0 mm 0 W/m2
04:20 -17.1 °C -17.6 °C 34395 hPa NNW 5.1 km/h 20.8 km/h 93 % 0 mm 0 W/m2
04:25 -17 °C -17.7 °C 34395 hPa NNW 18.2 km/h 25.9 km/h 92 % 0 mm 0 W/m2
04:30 -17.1 °C -17.7 °C 34395 hPa NNW 5.1 km/h 25.9 km/h 92 % 0 mm 0 W/m2
04:40 -16.9 °C -17.6 °C 34405.1 hPa NNW 7.7 km/h 36.2 km/h 92 % 0 mm 0 W/m2
04:50 -16.9 °C -17.7 °C 34395 hPa WNW 5.1 km/h 31.1 km/h 91 % 0 mm 0 W/m2
05:05 -17.1 °C -17.7 °C 34405.1 hPa Calm   23.3 km/h 92 % 0 mm 0 W/m2
05:15 -17.3 °C -17.9 °C 34405.1 hPa Calm   28.5 km/h 92 % 0 mm 0 W/m2
05:20 -17.2 °C -17.8 °C 34405.1 hPa NNW 2.6 km/h 28.5 km/h 92 % 0 mm 0 W/m2
05:25 -17.2 °C -17.8 °C 34405.1 hPa North 20.8 km/h 28.5 km/h 92 % 0 mm 0 W/m2
05:30 -17.1 °C -17.7 °C 34418.7 hPa North 12.9 km/h 23.3 km/h 93 % 0 mm 0 W/m2
05:35 -17.2 °C -17.8 °C 34418.7 hPa North 7.7 km/h 23.3 km/h 92 % 0 mm 0 W/m2
05:45 -17.2 °C -17.9 °C 34418.7 hPa NE 10.3 km/h 23.3 km/h 92 % 0 mm 0 W/m2
05:50 -17.3 °C -17.8 °C 34418.7 hPa Calm   23.3 km/h 93 % 0 mm 0 W/m2
05:55 -17.4 °C -18.1 °C 34418.7 hPa NNW 7.7 km/h 15.6 km/h 92 % 0 mm 0 W/m2
06:00 -17.4 °C -18 °C 34418.7 hPa North 7.7 km/h 20.8 km/h 93 % 0 mm 0 W/m2
06:05 -17.4 °C -18 °C 34418.7 hPa North 10.3 km/h 23.3 km/h 93 % 0 mm 0 W/m2
06:10 -17.4 °C -17.9 °C 34428.8 hPa North 20.8 km/h 25.9 km/h 93 % 0 mm 0 W/m2
06:15 -17.3 °C -17.9 °C 34428.8 hPa NNE 12.9 km/h 25.9 km/h 93 % 0 mm 0 W/m2
06:20 -17.3 °C -17.8 °C 34428.8 hPa North 12.9 km/h 25.9 km/h 94 % 0 mm 0 W/m2
06:25 -17.3 °C -17.7 °C 34428.8 hPa NNW 10.3 km/h 28.5 km/h 94 % 0 mm 0 W/m2
06:30 -17.3 °C -17.8 °C 34428.8 hPa North 2.6 km/h 28.5 km/h 94 % 0 mm 0 W/m2
06:35 -17.3 °C -17.7 °C 34428.8 hPa North 5.1 km/h 20.8 km/h 94 % 0 mm 0 W/m2
06:40 -17.3 °C -17.9 °C 34428.8 hPa North 2.6 km/h 18.2 km/h 93 % 0 mm 0 W/m2
06:50 -17.3 °C -17.8 °C 34428.8 hPa North 5.1 km/h 20.8 km/h 94 % 0 mm 0 W/m2
06:55 -17.3 °C -17.8 °C 34442.4 hPa North 5.1 km/h 20.8 km/h 94 % 0 mm 0 W/m2
07:00 -17.3 °C -17.8 °C 34442.4 hPa NNW 5.1 km/h 20.8 km/h 94 % 0 mm 0 W/m2
07:05 -17.3 °C -17.8 °C 34442.4 hPa North 2.6 km/h 20.8 km/h 94 % 0 mm 0 W/m2
07:10 -17.3 °C -17.8 °C 34442.4 hPa NNW 7.7 km/h 18.2 km/h 94 % 0 mm 0 W/m2
07:15 -17.3 °C -17.8 °C 34442.4 hPa Calm   18.2 km/h 94 % 0 mm 0 W/m2
07:20 -17.2 °C -17.7 °C 34452.6 hPa NNW 2.6 km/h 18.2 km/h 94 % 0 mm 0 W/m2
07:30 -17.1 °C -17.6 °C 34452.6 hPa NNW 10.3 km/h 15.6 km/h 94 % 0 mm 0 W/m2
07:35 -17.1 °C -17.6 °C 34452.6 hPa North 7.7 km/h 15.6 km/h 94 % 0 mm 0 W/m2
07:40 -17.1 °C -17.6 °C 34452.6 hPa NW 5.1 km/h 15.6 km/h 94 % 0 mm 0 W/m2
07:45 -17.2 °C -17.7 °C 34452.6 hPa NW 2.6 km/h 18.2 km/h 94 % 0 mm 0 W/m2
07:55 -17.3 °C -17.8 °C 34462.7 hPa North 2.6 km/h 18.2 km/h 94 % 0 mm 0 W/m2
08:00 -17.4 °C -17.9 °C 34452.6 hPa NNE 7.7 km/h 18.2 km/h 94 % 0 mm 0 W/m2
08:05 -17.4 °C -17.9 °C 34462.7 hPa North 5.1 km/h 18.2 km/h 94 % 0 mm 0 W/m2
08:10 -17.4 °C -17.8 °C 34462.7 hPa North 5.1 km/h 18.2 km/h 94 % 0 mm 0 W/m2
08:15 -17.4 °C -17.9 °C 34462.7 hPa NNW 5.1 km/h 18.2 km/h 94 % 0 mm 0 W/m2
08:20 -17.3 °C -17.8 °C 34476.3 hPa NNW 2.6 km/h 12.9 km/h 94 % 0 mm 0 W/m2
08:25 -17.4 °C -17.8 °C 34476.3 hPa Calm   12.9 km/h 94 % 0 mm 0 W/m2
08:30 -17.3 °C -17.7 °C 34476.3 hPa Calm   12.9 km/h 95 % 0 mm 0 W/m2
08:35 -17.4 °C -17.8 °C 34476.3 hPa NW 7.7 km/h 15.6 km/h 94 % 0 mm 0 W/m2
08:40 -17.4 °C -17.8 °C 34476.3 hPa Calm   15.6 km/h 94 % 0 mm 5 W/m2
08:50 -17.4 °C -17.8 °C 34486.4 hPa NNW 5.1 km/h 15.6 km/h 95 % 0 mm 18 W/m2
08:55 -17.3 °C -17.7 °C 34486.4 hPa NW 10.3 km/h 18.2 km/h 95 % 0 mm 16 W/m2
09:00 -17.2 °C -17.6 °C 34486.4 hPa NNW 5.1 km/h 18.2 km/h 95 % 0 mm 16 W/m2
09:15 -17.1 °C -17.5 °C 34486.4 hPa NNW 15.6 km/h 18.2 km/h 95 % 0 mm 19 W/m2
09:20 -17.1 °C -17.4 °C 34486.4 hPa NNE 15.6 km/h 20.8 km/h 95 % 0 mm 21 W/m2
09:25 -17 °C -17.4 °C 34496.6 hPa Calm   20.8 km/h 95 % 0 mm 23 W/m2
09:30 -16.9 °C -17.3 °C 34496.6 hPa NNW 15.6 km/h 20.8 km/h 95 % 0 mm 25 W/m2
09:35 -16.8 °C -17.2 °C 34496.6 hPa NNW 7.7 km/h 23.3 km/h 95 % 0 mm 26 W/m2
09:50 -16.6 °C -17.1 °C 34496.6 hPa NW 7.7 km/h 23.3 km/h 94 % 0 mm 28 W/m2
09:55 -16.6 °C -17 °C 34510.1 hPa North 7.7 km/h 25.9 km/h 94 % 0 mm 30 W/m2
10:00 -16.5 °C -16.9 °C 34510.1 hPa NNW 5.1 km/h 25.9 km/h 94 % 0 mm 32 W/m2
10:05 -16.4 °C -16.9 °C 34510.1 hPa NW 2.6 km/h 18.2 km/h 94 % 0 mm 33 W/m2
10:10 -16.3 °C -16.7 °C 34510.1 hPa NNW 12.9 km/h 25.9 km/h 94 % 0 mm 109 W/m2
10:15 -16.2 °C -16.8 °C 34510.1 hPa North 10.3 km/h 25.9 km/h 93 % 0 mm 193 W/m2
10:20 -16.1 °C -16.7 °C 34510.1 hPa NNW 23.3 km/h 23.3 km/h 93 % 0 mm 171 W/m2
10:30 -15.9 °C -16.6 °C 34520.3 hPa NNW 7.7 km/h 25.9 km/h 92 % 7.62 mm 190 W/m2
10:40 -15.7 °C -16.4 °C 34520.3 hPa NNW 10.3 km/h 31.1 km/h 91 % 7.62 mm 209 W/m2
10:50 -15.4 °C -16.3 °C 34520.3 hPa North 15.6 km/h 23.3 km/h 90 % 7.62 mm 230 W/m2
10:55 -15.4 °C -16.3 °C 34520.3 hPa NNW 12.9 km/h 23.3 km/h 89 % 7.62 mm 237 W/m2
11:00 -15.2 °C -16.3 °C 34533.8 hPa NNW 18.2 km/h 31.1 km/h 88 % 7.62 mm 243 W/m2
11:05 -15.3 °C -16.4 °C 34533.8 hPa NNE 18.2 km/h 31.1 km/h 87 % 7.62 mm 251 W/m2
11:10 -15.2 °C -16.3 °C 34533.8 hPa NNW 12.9 km/h 31.1 km/h 87 % 7.62 mm 258 W/m2
11:15 -15.1 °C -16.2 °C 34533.8 hPa NNW 18.2 km/h 23.3 km/h 87 % 7.62 mm 267 W/m2
11:20 -15 °C -16.1 °C 34533.8 hPa North 15.6 km/h 28.5 km/h 87 % 0 mm 279 W/m2
11:25 -14.9 °C -16 °C 34533.8 hPa NE 10.3 km/h 28.5 km/h 87 % 0 mm 283 W/m2
11:30 -14.8 °C -16 °C 34544 hPa NNE 15.6 km/h 25.9 km/h 86 % 0 mm 355 W/m2
11:35 -14.6 °C -16 °C 34544 hPa North 7.7 km/h 25.9 km/h 84 % 0 mm 218 W/m2
11:40 -14.8 °C -16.1 °C 34533.8 hPa NNE 18.2 km/h 28.5 km/h 85 % 0 mm 118 W/m2
11:45 -14.8 °C -16 °C 34533.8 hPa NE 15.6 km/h 28.5 km/h 86 % 0 mm 295 W/m2
11:50 -14.6 °C -15.8 °C 34533.8 hPa WNW 5.1 km/h 28.5 km/h 86 % 0 mm 299 W/m2
12:00 -14.6 °C -15.9 °C 34533.8 hPa North 25.9 km/h 36.2 km/h 84 % 0 mm 311 W/m2
12:05 -14.4 °C -15.8 °C 34544 hPa North 12.9 km/h 36.2 km/h 84 % 0 mm 313 W/m2
12:10 -14.3 °C -15.8 °C 34544 hPa NNW 12.9 km/h 28.5 km/h 83 % 0 mm 320 W/m2
12:20 -14.2 °C -15.8 °C 34544 hPa NW 10.3 km/h 23.3 km/h 82 % 0 mm 325 W/m2
12:30 -14 °C -15.7 °C 34544 hPa NW 12.9 km/h 36.2 km/h 81 % 0 mm 329 W/m2
12:35 -13.8 °C -15.5 °C 34544 hPa NW 23.3 km/h 36.2 km/h 81 % 0 mm 330 W/m2
12:40 -13.7 °C -15.5 °C 34544 hPa NNE 20.8 km/h 36.2 km/h 80 % 0 mm 334 W/m2
12:45 -13.8 °C -15.8 °C 34533.8 hPa NNW 10.3 km/h 41.4 km/h 78 % 0 mm 332 W/m2
12:55 -13.6 °C -15.6 °C 34533.8 hPa North 18.2 km/h 33.6 km/h 78 % 0 mm 334 W/m2
13:00 -13.6 °C -15.6 °C 34533.8 hPa NNE 10.3 km/h 33.6 km/h 78 % 0 mm 334 W/m2
13:05 -13.6 °C -15.8 °C 34533.8 hPa North 10.3 km/h 33.6 km/h 76 % 0 mm 336 W/m2
13:10 -13.3 °C -15.4 °C 34533.8 hPa NNE 12.9 km/h 33.6 km/h 77 % 0 mm 338 W/m2
13:20 -13.3 °C -15.7 °C 34533.8 hPa North 18.2 km/h 31.1 km/h 75 % 0 mm 330 W/m2
13:25 -13.4 °C -15.8 °C 34533.8 hPa North 18.2 km/h 44.1 km/h 74 % 0 mm 327 W/m2
13:30 -13.4 °C -16.1 °C 34533.8 hPa NNE 12.9 km/h 44.1 km/h 72 % 0 mm 329 W/m2
13:35 -13.3 °C -15.7 °C 34533.8 hPa NNE 25.9 km/h 36.2 km/h 74 % 0 mm 323 W/m2
13:40 -13.2 °C -15.6 °C 34533.8 hPa North 18.2 km/h 36.2 km/h 74 % 0 mm 320 W/m2
13:45 -13.2 °C -15.7 °C 34533.8 hPa North 7.7 km/h 31.1 km/h 73 % 0 mm 315 W/m2
13:50 -13.1 °C -15.7 °C 34533.8 hPa North 12.9 km/h 31.1 km/h 73 % 0 mm 311 W/m2
14:00 -13.1 °C -15.6 °C 34533.8 hPa North 5.1 km/h 36.2 km/h 73 % 0 mm 304 W/m2
14:05 -12.9 °C -15.7 °C 34533.8 hPa North 10.3 km/h 31.1 km/h 71 % 0 mm 304 W/m2
14:10 -13.1 °C -15.9 °C 34533.8 hPa NW 2.6 km/h 31.1 km/h 70 % 0 mm 295 W/m2
14:15 -13.1 °C -15.7 °C 34533.8 hPa North 15.6 km/h 31.1 km/h 72 % 0 mm 318 W/m2
14:20 -12.9 °C -15.5 °C 34533.8 hPa NNW 12.9 km/h 28.5 km/h 73 % 0 mm 380 W/m2
14:25 -13 °C -15.8 °C 34533.8 hPa NNE 5.1 km/h 28.5 km/h 71 % 0 mm 237 W/m2
14:30 -13.1 °C -15.6 °C 34533.8 hPa NNW 18.2 km/h 31.1 km/h 73 % 0 mm 188 W/m2
14:35 -13.2 °C -15.8 °C 34533.8 hPa North 23.3 km/h 44.1 km/h 72 % 0 mm 120 W/m2
14:40 -13.2 °C -15.7 °C 34533.8 hPa NE 23.3 km/h 44.1 km/h 74 % 0 mm 258 W/m2
14:45 -13.2 °C -15.5 °C 34533.8 hPa NNW 12.9 km/h 36.2 km/h 75 % 0 mm 276 W/m2
14:55 -12.9 °C -15.5 °C 34533.8 hPa North 7.7 km/h 46.7 km/h 73 % 0 mm 329 W/m2
15:05 -12.9 °C -15.5 °C 34533.8 hPa North 12.9 km/h 46.7 km/h 73 % 0 mm 155 W/m2
15:10 -13.1 °C -15.4 °C 34533.8 hPa WNW 12.9 km/h 46.7 km/h 75 % 0 mm 153 W/m2
15:20 -13.4 °C -15.7 °C 34533.8 hPa NNW 20.8 km/h 38.8 km/h 75 % 0 mm 49 W/m2
15:25 -13.6 °C -15.8 °C 34533.8 hPa NW 12.9 km/h 36.2 km/h 75 % 0 mm 44 W/m2
15:30 -13.7 °C -15.8 °C 34544 hPa NNE 25.9 km/h 44.1 km/h 76 % 0 mm 47 W/m2
15:35 -13.7 °C -15.7 °C 34544 hPa NE 23.3 km/h 44.1 km/h 78 % 0 mm 28 W/m2
15:40 -13.8 °C -15.6 °C 34544 hPa NNE 10.3 km/h 28.5 km/h 80 % 0 mm 39 W/m2
15:45 -13.9 °C -15.4 °C 34554.1 hPa ENE 12.9 km/h 28.5 km/h 83 % 0 mm 32 W/m2
15:50 -14.1 °C -15.4 °C 34554.1 hPa North 23.3 km/h 31.1 km/h 85 % 0 mm 62 W/m2
15:55 -14.2 °C -15.3 °C 34554.1 hPa NNW 10.3 km/h 31.1 km/h 87 % 0 mm 51 W/m2
16:00 -14.4 °C -15.4 °C 34554.1 hPa North 18.2 km/h 33.6 km/h 88 % 0 mm 28 W/m2
16:05 -14.6 °C -15.6 °C 34554.1 hPa NNW 5.1 km/h 33.6 km/h 88 % 0 mm 23 W/m2
16:10 -14.7 °C -15.6 °C 34554.1 hPa North 12.9 km/h 23.3 km/h 89 % 0 mm 53 W/m2
16:15 -14.6 °C -15.5 °C 34554.1 hPa NNE 20.8 km/h 38.8 km/h 89 % 0 mm 28 W/m2
16:20 -14.6 °C -15.4 °C 34567.7 hPa North 5.1 km/h 38.8 km/h 89 % 0 mm 26 W/m2
16:25 -14.6 °C -15.6 °C 34567.7 hPa NW 18.2 km/h 31.1 km/h 88 % 0 mm 25 W/m2
16:30 -14.6 °C -15.7 °C 34567.7 hPa NNW 15.6 km/h 41.4 km/h 87 % 0 mm 23 W/m2
16:35 -14.7 °C -15.7 °C 34567.7 hPa NW 12.9 km/h 41.4 km/h 88 % 0 mm 21 W/m2
16:45 -14.8 °C -15.8 °C 34577.8 hPa NNW 7.7 km/h 36.2 km/h 88 % 0 mm 18 W/m2
16:50 -14.8 °C -15.8 °C 34577.8 hPa NE 12.9 km/h 36.2 km/h 88 % 0 mm 16 W/m2
16:55 -14.9 °C -15.9 °C 34577.8 hPa NNW 23.3 km/h 31.1 km/h 88 % 0 mm 14 W/m2
17:10 -14.8 °C -15.7 °C 34577.8 hPa NNW 23.3 km/h 28.5 km/h 89 % 0 mm 7 W/m2
17:15 -14.9 °C -15.9 °C 34591.4 hPa North 12.9 km/h 25.9 km/h 89 % 0 mm 5 W/m2
17:20 -14.9 °C -15.7 °C 34591.4 hPa NNW 5.1 km/h 23.3 km/h 90 % 0 mm 0 W/m2
17:30 -14.8 °C -15.6 °C 34591.4 hPa NW 2.6 km/h 25.9 km/h 90 % 0 mm 0 W/m2
17:35 -14.8 °C -15.6 °C 34591.4 hPa North 10.3 km/h 23.3 km/h 90 % 0 mm 0 W/m2
17:40 -14.8 °C -15.6 °C 34591.4 hPa NNE 20.8 km/h 28.5 km/h 90 % 0 mm 0 W/m2
17:45 -14.8 °C -15.7 °C 34591.4 hPa North 7.7 km/h 31.1 km/h 90 % 0 mm 0 W/m2
17:50 -14.8 °C -15.7 °C 34591.4 hPa NW 20.8 km/h 31.1 km/h 90 % 0 mm 0 W/m2
17:55 -14.8 °C -15.6 °C 34591.4 hPa North 25.9 km/h 33.6 km/h 90 % 0 mm 0 W/m2
18:00 -14.8 °C -15.7 °C 34601.5 hPa North 10.3 km/h 33.6 km/h 89 % 0 mm 0 W/m2
18:05 -14.9 °C -15.8 °C 34601.5 hPa North 18.2 km/h 31.1 km/h 89 % 0 mm 0 W/m2
18:10 -14.8 °C -15.7 °C 34601.5 hPa NE 20.8 km/h 28.5 km/h 90 % 0 mm 0 W/m2
18:15 -14.8 °C -15.8 °C 34601.5 hPa NNE 10.3 km/h 25.9 km/h 89 % 0 mm 0 W/m2
18:20 -15 °C -15.9 °C 34601.5 hPa North 5.1 km/h 28.5 km/h 89 % 0 mm 0 W/m2
18:25 -14.9 °C -15.8 °C 34601.5 hPa North 23.3 km/h 28.5 km/h 90 % 0 mm 0 W/m2
18:30 -14.9 °C -15.8 °C 34611.7 hPa North 10.3 km/h 23.3 km/h 90 % 0 mm 0 W/m2
18:40 -15.1 °C -15.9 °C 34611.7 hPa North 15.6 km/h 28.5 km/h 90 % 0 mm 0 W/m2
18:45 -15.2 °C -16.1 °C 34611.7 hPa NW 15.6 km/h 25.9 km/h 90 % 0 mm 0 W/m2
18:55 -15.3 °C -16.1 °C 34611.7 hPa NW 7.7 km/h 31.1 km/h 91 % 0 mm 0 W/m2
19:10 -15.4 °C -16.2 °C 34625.2 hPa NNE 15.6 km/h 28.5 km/h 91 % 0 mm 0 W/m2
19:15 -15.6 °C -16.3 °C 34625.2 hPa NNW 20.8 km/h 28.5 km/h 91 % 0 mm 0 W/m2
19:20 -15.6 °C -16.2 °C 34635.4 hPa North 18.2 km/h 28.5 km/h 92 % 0 mm 0 W/m2
19:25 -15.6 °C -16.3 °C 34635.4 hPa North 20.8 km/h 33.6 km/h 92 % 0 mm 0 W/m2
19:35 -15.7 °C -16.3 °C 34635.4 hPa North 5.1 km/h 25.9 km/h 92 % 0 mm 0 W/m2
19:40 -15.7 °C -16.3 °C 34645.6 hPa NNW 28.5 km/h 28.5 km/h 92 % 0 mm 0 W/m2
19:50 -15.7 °C -16.3 °C 34645.6 hPa NNW 10.3 km/h 31.1 km/h 93 % 0 mm 0 W/m2
19:55 -15.7 °C -16.3 °C 34645.6 hPa North 10.3 km/h 31.1 km/h 93 % 0 mm 0 W/m2
20:00 -15.8 °C -16.4 °C 34645.6 hPa North 7.7 km/h 25.9 km/h 93 % 0 mm 0 W/m2
20:15 -15.9 °C -16.4 °C 34659.1 hPa NNW 12.9 km/h 15.6 km/h 93 % 0 mm 0 W/m2
20:25 -16 °C -16.6 °C 34659.1 hPa NNW 12.9 km/h 18.2 km/h 93 % 0 mm 0 W/m2
20:30 -16.1 °C -16.7 °C 34659.1 hPa North 5.1 km/h 18.2 km/h 93 % 0 mm 0 W/m2
20:35 -16.2 °C -16.6 °C 34659.1 hPa North 10.3 km/h 18.2 km/h 94 % 0 mm 0 W/m2
20:40 -16.1 °C -16.6 °C 34659.1 hPa NNW 10.3 km/h 20.8 km/h 94 % 0 mm 0 W/m2
20:45 -16.1 °C -16.6 °C 34659.1 hPa North 7.7 km/h 20.8 km/h 94 % 0 mm 0 W/m2
20:50 -16.2 °C -16.7 °C 34669.3 hPa NNW 5.1 km/h 15.6 km/h 94 % 0 mm 0 W/m2
21:00 -16.2 °C -16.7 °C 34669.3 hPa North 2.6 km/h 23.3 km/h 94 % 0 mm 0 W/m2
21:05 -16.2 °C -16.7 °C 34669.3 hPa NNW 10.3 km/h 28.5 km/h 94 % 0 mm 0 W/m2
21:10 -16.2 °C -16.7 °C 34669.3 hPa North 10.3 km/h 28.5 km/h 94 % 0 mm 0 W/m2
21:15 -16.1 °C -16.5 °C 34682.8 hPa NNW 12.9 km/h 20.8 km/h 95 % 0 mm 0 W/m2
21:20 -16.1 °C -16.5 °C 34682.8 hPa North 15.6 km/h 18.2 km/h 95 % 0 mm 0 W/m2
21:25 -16.2 °C -16.7 °C 34682.8 hPa North 15.6 km/h 18.2 km/h 94 % 0 mm 0 W/m2
21:40 -16.3 °C -16.7 °C 34682.8 hPa North 10.3 km/h 23.3 km/h 94 % 0 mm 0 W/m2
21:45 -16.3 °C -16.7 °C 34693 hPa North 12.9 km/h 20.8 km/h 95 % 0 mm 0 W/m2
21:50 -16.2 °C -16.6 °C 34693 hPa NNW 2.6 km/h 25.9 km/h 95 % 0 mm 0 W/m2
22:00 -16.3 °C -16.7 °C 34693 hPa North 5.1 km/h 23.3 km/h 95 % 0 mm 0 W/m2
22:05 -16.3 °C -16.7 °C 34693 hPa North 7.7 km/h 18.2 km/h 95 % 0 mm 0 W/m2
22:15 -16.4 °C -16.8 °C 34693 hPa NE 10.3 km/h 20.8 km/h 95 % 0 mm 0 W/m2
22:20 -16.4 °C -16.8 °C 34693 hPa North 10.3 km/h 15.6 km/h 95 % 0 mm 0 W/m2
22:25 -16.3 °C -16.7 °C 34693 hPa NW 10.3 km/h 18.2 km/h 95 % 0 mm 0 W/m2
22:30 -16.3 °C -16.7 °C 34693 hPa Calm   18.2 km/h 95 % 0 mm 0 W/m2
22:35 -16.4 °C -16.8 °C 34703.1 hPa North 2.6 km/h 15.6 km/h 95 % 0 mm 0 W/m2
22:40 -16.5 °C -16.9 °C 34703.1 hPa North 10.3 km/h 18.2 km/h 95 % 0 mm 0 W/m2
22:45 -16.4 °C -16.8 °C 34703.1 hPa North 2.6 km/h 18.2 km/h 95 % 0 mm 0 W/m2
22:50 -16.5 °C -16.9 °C 34703.1 hPa North 10.3 km/h 18.2 km/h 95 % 0 mm 0 W/m2
23:00 -16.3 °C -16.8 °C 34703.1 hPa NNW 5.1 km/h 20.8 km/h 95 % 0 mm 0 W/m2
23:05 -16.4 °C -16.8 °C 34703.1 hPa NNW 5.1 km/h 20.8 km/h 95 % 0 mm 0 W/m2
23:10 -16.4 °C -16.8 °C 34703.1 hPa North 12.9 km/h 18.2 km/h 95 % 0 mm 0 W/m2
23:20 -16.2 °C -16.6 °C 34703.1 hPa NW 2.6 km/h 15.6 km/h 95 % 0 mm 0 W/m2
23:25 -16.1 °C -16.4 °C 34703.1 hPa NNE 10.3 km/h 20.8 km/h 96 % 0 mm 0 W/m2
23:35 -15.9 °C -16.3 °C 34703.1 hPa North 2.6 km/h 20.8 km/h 95 % 0 mm 0 W/m2
23:40 -15.9 °C -16.3 °C 34703.1 hPa NNW 10.3 km/h 18.2 km/h 95 % 0 mm 0 W/m2
23:45 -15.9 °C -16.3 °C 34703.1 hPa NNE 2.6 km/h 18.2 km/h 95 % 0 mm 0 W/m2
23:50 -16 °C -16.4 °C 34716.7 hPa Calm   15.6 km/h 95 % 0 mm 0 W/m2
23:55 -15.9 °C -16.3 °C 34716.7 hPa Calm   18.2 km/h 95 % 0 mm 0 W/m2
Avec l'autorisation de Weather Underground - 1.5 mb